Time;durP1;ratioP1;P1;durP2;ratioP2;P2;SDS_P1;SDS_P2;PMS_P1;PMS_P2;Temp;Humidity;BMP_temperature;BMP_pressure;BME280_temperature;BME280_humidity;BME280_pressure;Samples;Min_cycle;Max_cycle;Signal;HPM_P1;HPM_P2
2023/03/14 00:02:19;;;;;;;21.67;3.80;;;;;;;;;;5053715;28;20021;-72
2023/03/14 00:04:45;;;;;;;22.67;3.63;;;;;;;;;;5055128;28;20028;-72
2023/03/14 00:07:12;;;;;;;28.75;4.15;;;;;;;;;;5055321;28;20025;-72
2023/03/14 00:09:38;;;;;;;15.98;3.95;;;;;;;;;;5055325;28;20032;-72
2023/03/14 00:12:04;;;;;;;24.77;3.95;;;;;;;;;;5055014;28;20494;-73
2023/03/14 00:14:32;;;;;;;20.45;4.18;;;;;;;;;;5054982;28;20434;-72
2023/03/14 00:16:58;;;;;;;14.93;3.60;;;;;;;;;;5054892;28;20025;-72
2023/03/14 00:19:24;;;;;;;20.35;4.40;;;;;;;;;;5055439;28;20033;-72
2023/03/14 00:21:50;;;;;;;16.65;4.10;;;;;;;;;;5054732;28;20025;-72
2023/03/14 00:24:16;;;;;;;18.42;4.22;;;;;;;;;;5054873;28;20024;-73
2023/03/14 00:26:42;;;;;;;16.73;3.70;;;;;;;;;;5054883;28;20028;-73
2023/03/14 00:29:08;;;;;;;13.90;3.65;;;;;;;;;;5054816;28;20021;-72
2023/03/14 00:31:35;;;;;;;13.25;3.72;;;;;;;;;;5053383;28;20021;-72
2023/03/14 00:34:01;;;;;;;22.60;4.25;;;;;;;;;;5054476;28;20017;-73
2023/03/14 00:36:27;;;;;;;19.33;3.80;;;;;;;;;;5054522;28;20043;-73
2023/03/14 00:38:53;;;;;;;18.67;3.97;;;;;;;;;;5054658;28;20063;-73
2023/03/14 00:41:22;;;;;;;22.13;4.10;;;;;;;;;;5054538;28;20014;-73
2023/03/14 00:43:48;;;;;;;23.40;5.00;;;;;;;;;;5054199;28;20021;-73
2023/03/14 00:46:14;;;;;;;18.42;3.95;;;;;;;;;;5054270;28;20052;-72
2023/03/14 00:48:40;;;;;;;23.85;3.95;;;;;;;;;;5054236;28;20032;-73
2023/03/14 00:51:08;;;;;;;12.60;3.70;;;;;;;;;;5054460;28;20044;-73
2023/03/14 00:53:38;;;;;;;20.77;4.20;;;;;;;;;;5054165;28;20025;-73
2023/03/14 00:56:04;;;;;;;15.05;3.80;;;;;;;;;;5054230;28;20029;-72
2023/03/14 00:58:30;;;;;;;26.63;4.32;;;;;;;;;;5054108;28;20529;-72
2023/03/14 01:00:56;;;;;;;19.58;3.50;;;;;;;;;;5049632;28;20346;-72
2023/03/14 01:03:23;;;;;;;14.50;3.80;;;;;;;;;;5053404;28;20104;-72
2023/03/14 01:05:50;;;;;;;18.27;3.88;;;;;;;;;;5033683;28;20022;-73
2023/03/14 01:08:16;;;;;;;15.35;4.05;;;;;;;;;;5034138;28;20057;-72
2023/03/14 01:10:42;;;;;;;18.90;4.07;;;;;;;;;;5034030;28;20076;-72
2023/03/14 01:13:08;;;;;;;23.58;3.88;;;;;;;;;;5033719;28;20029;-71
2023/03/14 01:15:34;;;;;;;16.23;3.20;;;;;;;;;;5033676;28;20025;-73
2023/03/14 01:18:00;;;;;;;23.15;3.85;;;;;;;;;;5033812;28;20029;-72
2023/03/14 01:20:26;;;;;;;20.63;3.88;;;;;;;;;;5033784;28;20028;-72
2023/03/14 01:22:52;;;;;;;19.38;3.67;;;;;;;;;;5033942;28;20382;-72
2023/03/14 01:25:18;;;;;;;23.00;4.47;;;;;;;;;;5033743;28;20025;-72
2023/03/14 01:27:44;;;;;;;19.15;3.38;;;;;;;;;;5033546;28;20482;-71
2023/03/14 01:30:11;;;;;;;22.02;4.22;;;;;;;;;;5033667;28;20029;-72
2023/03/14 01:32:38;;;;;;;21.70;5.00;;;;;;;;;;5033504;28;20100;-71
2023/03/14 01:35:04;;;;;;;22.05;4.25;;;;;;;;;;5033660;28;20406;-73
2023/03/14 01:37:30;;;;;;;20.05;4.10;;;;;;;;;;5033518;28;20032;-72
2023/03/14 01:39:56;;;;;;;21.15;4.07;;;;;;;;;;5033621;28;20033;-73
2023/03/14 01:42:22;;;;;;;28.90;5.25;;;;;;;;;;5033339;28;20028;-72
2023/03/14 01:44:57;;;;;;;22.92;4.10;;;;;;;;;;5033254;28;20029;-73
2023/03/14 01:47:23;;;;;;;24.40;4.38;;;;;;;;;;5033312;28;20037;-72
2023/03/14 01:49:52;;;;;;;22.52;3.80;;;;;;;;;;5033458;28;20030;-73
2023/03/14 01:52:23;;;;;;;23.83;4.63;;;;;;;;;;5032600;28;20030;-72
2023/03/14 01:54:51;;;;;;;28.00;4.18;;;;;;;;;;5031897;28;20125;-73
2023/03/14 01:57:17;;;;;;;16.98;3.92;;;;;;;;;;5032996;28;20499;-73
2023/03/14 01:59:46;;;;;;;21.17;3.53;;;;;;;;;;5033148;28;20060;-73
2023/03/14 02:02:12;;;;;;;16.23;3.80;;;;;;;;;;5032838;28;20094;-73
2023/03/14 02:04:39;;;;;;;18.58;3.75;;;;;;;;;;5033696;28;20021;-72
2023/03/14 02:07:16;;;;;;;17.15;4.05;;;;;;;;;;5032901;28;20031;-72
2023/03/14 02:09:43;;;;;;;21.35;4.50;;;;;;;;;;5032910;28;20540;-72
2023/03/14 02:12:10;;;;;;;20.55;3.95;;;;;;;;;;5032558;28;20022;-72
2023/03/14 02:14:37;;;;;;;21.80;3.88;;;;;;;;;;5032907;28;20080;-73
2023/03/14 02:17:06;;;;;;;21.08;4.05;;;;;;;;;;5032691;28;20119;-72
2023/03/14 02:19:43;;;;;;;14.60;4.05;;;;;;;;;;5032595;28;20487;-72
2023/03/14 02:22:13;;;;;;;15.20;4.57;;;;;;;;;;5032322;28;20098;-71
2023/03/14 02:24:42;;;;;;;17.80;4.40;;;;;;;;;;5031799;28;20025;-72
2023/03/14 02:27:15;;;;;;;21.25;4.53;;;;;;;;;;5032382;28;20022;-71
2023/03/14 02:29:46;;;;;;;17.40;4.30;;;;;;;;;;5032474;28;20029;-72
2023/03/14 02:32:13;;;;;;;21.00;4.35;;;;;;;;;;5032291;28;20487;-72
2023/03/14 02:34:40;;;;;;;15.52;4.30;;;;;;;;;;5032744;28;20022;-72
2023/03/14 02:37:06;;;;;;;16.85;4.20;;;;;;;;;;5032306;28;20052;-72
2023/03/14 02:39:40;;;;;;;15.95;4.55;;;;;;;;;;5032382;28;20551;-72
2023/03/14 02:42:06;;;;;;;18.03;4.43;;;;;;;;;;5032081;28;20032;-71
2023/03/14 02:44:32;;;;;;;23.10;4.53;;;;;;;;;;5032102;28;20116;-72
2023/03/14 02:46:58;;;;;;;18.60;4.25;;;;;;;;;;5032194;28;20537;-72
2023/03/14 02:49:25;;;;;;;22.60;4.88;;;;;;;;;;5032185;28;20025;-72
2023/03/14 02:51:51;;;;;;;18.67;4.00;;;;;;;;;;5031896;28;20045;-72
2023/03/14 02:54:19;;;;;;;21.90;4.72;;;;;;;;;;5032149;28;20049;-72
2023/03/14 02:56:45;;;;;;;17.77;4.32;;;;;;;;;;5031974;28;20033;-73
2023/03/14 02:59:11;;;;;;;20.45;4.60;;;;;;;;;;5032210;28;20040;-72
2023/03/14 03:01:37;;;;;;;16.25;4.28;;;;;;;;;;5032302;28;20024;-72
2023/03/14 03:04:03;;;;;;;18.02;4.22;;;;;;;;;;5031143;28;20474;-72
2023/03/14 03:06:29;;;;;;;22.27;4.45;;;;;;;;;;5032504;28;20033;-72
2023/03/14 03:08:55;;;;;;;18.95;4.35;;;;;;;;;;5032208;28;20036;-73
2023/03/14 03:11:21;;;;;;;16.80;4.10;;;;;;;;;;5031914;28;20037;-72
2023/03/14 03:13:47;;;;;;;17.50;4.80;;;;;;;;;;5031861;28;20036;-72
2023/03/14 03:16:14;;;;;;;16.33;3.92;;;;;;;;;;5032174;28;20037;-73
2023/03/14 03:18:40;;;;;;;15.18;4.40;;;;;;;;;;5032041;28;20407;-72
2023/03/14 03:21:08;;;;;;;16.08;3.85;;;;;;;;;;5031953;28;20060;-71
2023/03/14 03:23:34;;;;;;;15.48;4.70;;;;;;;;;;5031710;28;20491;-72
2023/03/14 03:26:02;;;;;;;18.63;4.88;;;;;;;;;;5031662;28;20369;-72
2023/03/14 03:28:28;;;;;;;15.02;3.67;;;;;;;;;;5031863;28;20049;-72
2023/03/14 03:30:54;;;;;;;18.65;4.78;;;;;;;;;;5031803;28;20056;-71
2023/03/14 03:33:22;;;;;;;14.10;4.47;;;;;;;;;;5031508;28;20029;-72
2023/03/14 03:35:52;;;;;;;25.20;5.28;;;;;;;;;;5031956;28;20100;-73
2023/03/14 03:38:19;;;;;;;18.45;4.68;;;;;;;;;;5031671;28;20482;-73
2023/03/14 03:40:45;;;;;;;14.68;4.30;;;;;;;;;;5031712;28;20109;-71
2023/03/14 03:43:12;;;;;;;18.10;4.22;;;;;;;;;;5031629;28;20025;-72
2023/03/14 03:45:38;;;;;;;21.50;4.95;;;;;;;;;;5032742;28;20438;-73
2023/03/14 03:48:04;;;;;;;18.58;4.60;;;;;;;;;;5044827;28;20021;-72
2023/03/14 03:50:30;;;;;;;14.02;3.88;;;;;;;;;;5053198;28;20024;-73
2023/03/14 03:52:56;;;;;;;15.00;4.35;;;;;;;;;;5053645;28;20498;-72
2023/03/14 03:55:22;;;;;;;17.10;4.10;;;;;;;;;;5053946;28;20036;-73
2023/03/14 03:57:48;;;;;;;13.60;3.80;;;;;;;;;;5054773;28;20036;-73
2023/03/14 04:00:14;;;;;;;20.67;4.40;;;;;;;;;;5053409;28;20025;-72
2023/03/14 04:02:41;;;;;;;15.90;4.45;;;;;;;;;;5051410;28;20122;-74
2023/03/14 04:05:07;;;;;;;18.13;4.15;;;;;;;;;;5051265;28;20482;-73
2023/03/14 04:07:33;;;;;;;20.95;4.78;;;;;;;;;;5051127;28;20040;-72
2023/03/14 04:09:59;;;;;;;21.08;3.60;;;;;;;;;;5051320;28;20029;-74
2023/03/14 04:12:25;;;;;;;16.63;3.58;;;;;;;;;;5050945;28;20108;-71
2023/03/14 04:14:51;;;;;;;22.75;4.30;;;;;;;;;;5051262;28;20056;-72
2023/03/14 04:17:17;;;;;;;16.52;3.92;;;;;;;;;;5054893;28;20114;-73
2023/03/14 04:19:43;;;;;;;21.92;4.32;;;;;;;;;;5055187;28;20021;-75
2023/03/14 04:22:10;;;;;;;18.75;4.63;;;;;;;;;;5054639;28;20021;-71
2023/03/14 04:24:36;;;;;;;15.15;3.95;;;;;;;;;;5054854;28;20053;-71
2023/03/14 04:27:02;;;;;;;15.13;3.75;;;;;;;;;;5055204;28;20025;-74
2023/03/14 04:29:27;;;;;;;17.52;4.15;;;;;;;;;;5054761;28;20029;-73
2023/03/14 04:31:53;;;;;;;17.23;3.67;;;;;;;;;;5054613;28;20433;-72
2023/03/14 04:34:19;;;;;;;18.45;4.35;;;;;;;;;;5054827;28;20017;-73
2023/03/14 04:36:46;;;;;;;16.30;4.25;;;;;;;;;;5054606;28;20071;-73
2023/03/14 04:39:12;;;;;;;19.85;4.18;;;;;;;;;;5054853;28;20025;-73
2023/03/14 04:41:38;;;;;;;14.95;3.20;;;;;;;;;;5054669;28;20021;-73
2023/03/14 04:44:04;;;;;;;5.63;2.00;;;;;;;;;;5054249;28;20033;-74
2023/03/14 04:46:30;;;;;;;9.70;1.92;;;;;;;;;;5054513;28;20028;-74
2023/03/14 04:48:56;;;;;;;15.43;2.50;;;;;;;;;;5054596;28;20518;-74
2023/03/14 04:51:23;;;;;;;5.20;1.27;;;;;;;;;;5054446;28;20158;-73
2023/03/14 04:53:49;;;;;;;5.38;1.33;;;;;;;;;;5054415;28;20045;-73
2023/03/14 04:56:15;;;;;;;7.25;1.60;;;;;;;;;;5054769;28;20033;-73
2023/03/14 04:58:41;;;;;;;9.68;1.45;;;;;;;;;;5054412;28;20031;-72
2023/03/14 05:01:07;;;;;;;7.97;1.55;;;;;;;;;;5054605;28;20024;-73
2023/03/14 05:03:35;;;;;;;6.00;1.80;;;;;;;;;;5054610;28;20021;-73
2023/03/14 05:06:01;;;;;;;6.22;1.70;;;;;;;;;;5054172;28;20047;-72
2023/03/14 05:08:27;;;;;;;6.22;1.50;;;;;;;;;;5054297;28;20025;-74
2023/03/14 05:10:54;;;;;;;6.68;1.50;;;;;;;;;;5054196;28;20021;-73
2023/03/14 05:13:20;;;;;;;7.70;1.45;;;;;;;;;;5053915;28;20029;-73
2023/03/14 05:15:46;;;;;;;9.18;1.60;;;;;;;;;;5049411;28;20032;-76
2023/03/14 05:18:12;;;;;;;7.50;1.77;;;;;;;;;;5050370;28;20022;-75
2023/03/14 05:20:38;;;;;;;10.70;1.60;;;;;;;;;;5052219;28;20029;-74
2023/03/14 05:23:04;;;;;;;9.30;1.70;;;;;;;;;;5053366;28;20025;-74
2023/03/14 05:25:30;;;;;;;10.15;2.10;;;;;;;;;;5053930;28;20081;-75
2023/03/14 05:27:56;;;;;;;11.02;2.20;;;;;;;;;;5053252;28;20021;-73
2023/03/14 05:30:22;;;;;;;8.13;2.00;;;;;;;;;;5054866;28;20029;-73
2023/03/14 05:32:48;;;;;;;7.85;2.05;;;;;;;;;;5054584;28;20508;-73
2023/03/14 05:35:15;;;;;;;9.93;2.25;;;;;;;;;;5057752;28;20035;-72
2023/03/14 05:37:41;;;;;;;11.73;2.55;;;;;;;;;;5054940;28;20505;-72
2023/03/14 05:40:08;;;;;;;8.45;2.40;;;;;;;;;;5054388;28;20033;-73
2023/03/14 05:42:34;;;;;;;9.60;2.70;;;;;;;;;;5053963;28;20032;-74
2023/03/14 05:45:00;;;;;;;10.07;2.60;;;;;;;;;;5054273;28;20025;-74
2023/03/14 05:47:26;;;;;;;17.13;3.22;;;;;;;;;;5055347;28;20090;-73
2023/03/14 05:49:52;;;;;;;8.45;2.33;;;;;;;;;;5054484;28;20029;-73
2023/03/14 05:52:18;;;;;;;10.02;3.17;;;;;;;;;;5054144;28;20036;-73
2023/03/14 05:54:44;;;;;;;12.88;3.05;;;;;;;;;;5052684;28;20035;-74
2023/03/14 05:57:10;;;;;;;11.90;3.20;;;;;;;;;;5053619;28;20025;-74
2023/03/14 05:59:36;;;;;;;11.95;3.22;;;;;;;;;;5054337;28;20100;-73
2023/03/14 06:02:02;;;;;;;14.02;3.80;;;;;;;;;;5053592;28;20024;-73
2023/03/14 06:04:28;;;;;;;15.63;4.15;;;;;;;;;;5053580;28;20025;-74
2023/03/14 06:06:54;;;;;;;10.07;4.10;;;;;;;;;;5054025;28;20021;-74
2023/03/14 06:09:23;;;;;;;14.95;4.00;;;;;;;;;;5053333;28;20029;-75
2023/03/14 06:11:49;;;;;;;15.82;5.13;;;;;;;;;;5053301;28;20045;-73
2023/03/14 06:14:15;;;;;;;22.38;5.50;;;;;;;;;;5049090;28;20084;-76
2023/03/14 06:16:41;;;;;;;15.02;4.82;;;;;;;;;;5053042;28;20707;-76
2023/03/14 06:19:07;;;;;;;24.13;6.05;;;;;;;;;;5053212;28;20029;-75
2023/03/14 06:21:32;;;;;;;19.55;6.13;;;;;;;;;;5052431;28;20137;-75
2023/03/14 06:23:58;;;;;;;14.45;5.97;;;;;;;;;;5051535;28;20024;-77
2023/03/14 06:26:24;;;;;;;19.70;6.47;;;;;;;;;;5052794;28;20502;-74
2023/03/14 06:28:50;;;;;;;18.05;7.65;;;;;;;;;;5053477;28;20052;-74
2023/03/14 06:31:17;;;;;;;24.75;9.40;;;;;;;;;;5052662;28;20048;-75
2023/03/14 06:33:43;;;;;;;17.25;7.07;;;;;;;;;;5053198;28;20039;-77
2023/03/14 06:36:09;;;;;;;20.48;8.50;;;;;;;;;;5053203;28;20100;-73
2023/03/14 06:38:35;;;;;;;20.48;7.80;;;;;;;;;;5052576;28;20040;-75
2023/03/14 06:41:08;;;;;;;21.50;7.85;;;;;;;;;;5053251;28;20025;-74
2023/03/14 06:43:34;;;;;;;14.55;8.27;;;;;;;;;;5051504;28;20028;-76
2023/03/14 06:46:00;;;;;;;20.65;7.80;;;;;;;;;;5057362;28;20032;-79
2023/03/14 06:48:26;;;;;;;25.45;8.70;;;;;;;;;;5057665;28;20025;-77
2023/03/14 06:50:52;;;;;;;25.48;7.55;;;;;;;;;;5052960;28;20326;-75
2023/03/14 06:53:18;;;;;;;27.33;7.68;;;;;;;;;;5052314;28;20409;-77
2023/03/14 06:55:45;;;;;;;19.50;7.13;;;;;;;;;;5052710;28;20020;-77
2023/03/14 06:58:11;;;;;;;19.48;6.93;;;;;;;;;;5052260;28;20499;-76
2023/03/14 07:00:37;;;;;;;19.90;5.68;;;;;;;;;;5052449;28;20032;-75
2023/03/14 07:03:03;;;;;;;24.85;5.82;;;;;;;;;;5052264;28;20082;-74
2023/03/14 07:05:29;;;;;;;23.25;9.55;;;;;;;;;;5052374;28;20029;-77
2023/03/14 07:07:55;;;;;;;20.95;5.40;;;;;;;;;;5055006;28;20032;-77
2023/03/14 07:10:21;;;;;;;16.25;5.53;;;;;;;;;;5060464;28;20025;-79
2023/03/14 07:12:48;;;;;;;18.45;5.20;;;;;;;;;;5072646;28;20053;-79
2023/03/14 07:15:14;;;;;;;18.63;4.47;;;;;;;;;;5068729;28;20029;-72
2023/03/14 07:17:40;;;;;;;17.83;4.35;;;;;;;;;;5060166;28;20032;-73
2023/03/14 07:20:07;;;;;;;24.75;4.22;;;;;;;;;;5067446;28;20009;-73
2023/03/14 07:22:33;;;;;;;13.27;3.63;;;;;;;;;;5055847;28;20074;-77
2023/03/14 07:24:59;;;;;;;16.05;3.42;;;;;;;;;;5053070;28;20029;-76
2023/03/14 07:27:25;;;;;;;21.25;3.85;;;;;;;;;;5052909;28;20025;-76
2023/03/14 07:29:51;;;;;;;18.52;3.85;;;;;;;;;;5053960;28;20031;-77
2023/03/14 07:32:17;;;;;;;17.88;3.10;;;;;;;;;;5052554;28;20071;-75
2023/03/14 07:34:43;;;;;;;16.58;2.90;;;;;;;;;;5054362;28;20033;-78
2023/03/14 07:37:10;;;;;;;19.02;3.25;;;;;;;;;;5054152;28;20032;-77
2023/03/14 07:39:36;;;;;;;17.52;2.80;;;;;;;;;;5053186;28;20026;-73
2023/03/14 07:42:02;;;;;;;12.85;2.80;;;;;;;;;;5051806;28;20645;-74
2023/03/14 07:44:28;;;;;;;11.20;3.08;;;;;;;;;;5052098;28;20392;-75
2023/03/14 07:46:54;;;;;;;26.70;8.65;;;;;;;;;;5052357;28;20025;-73
2023/03/14 07:49:20;;;;;;;12.35;3.20;;;;;;;;;;5052384;28;20032;-74
2023/03/14 07:51:50;;;;;;;15.35;3.38;;;;;;;;;;5054757;28;20029;-74
2023/03/14 07:54:16;;;;;;;21.20;3.13;;;;;;;;;;5055402;28;20435;-74
2023/03/14 07:56:42;;;;;;;17.98;3.13;;;;;;;;;;5054748;28;20483;-74
2023/03/14 07:59:08;;;;;;;16.77;3.38;;;;;;;;;;5054756;28;20029;-77
2023/03/14 08:01:34;;;;;;;10.98;2.80;;;;;;;;;;5054402;28;20056;-72
2023/03/14 08:04:00;;;;;;;13.25;3.28;;;;;;;;;;5055137;28;20021;-72
2023/03/14 08:06:26;;;;;;;18.55;3.58;;;;;;;;;;5054781;28;20398;-76
2023/03/14 08:08:52;;;;;;;17.02;3.38;;;;;;;;;;5054874;28;20033;-74
2023/03/14 08:11:18;;;;;;;16.10;3.03;;;;;;;;;;5055063;28;20024;-72
2023/03/14 08:13:49;;;;;;;20.35;4.00;;;;;;;;;;5054140;28;20024;-73
2023/03/14 08:16:16;;;;;;;16.58;3.60;;;;;;;;;;5054615;28;20033;-72
2023/03/14 08:18:42;;;;;;;15.18;3.28;;;;;;;;;;5054276;28;20029;-72
2023/03/14 08:21:08;;;;;;;15.82;3.22;;;;;;;;;;5054579;28;20025;-73
2023/03/14 08:23:34;;;;;;;18.10;2.90;;;;;;;;;;5053806;28;20085;-73
2023/03/14 08:26:00;;;;;;;12.55;2.63;;;;;;;;;;5053965;28;20059;-73
2023/03/14 08:28:32;;;;;;;13.55;2.78;;;;;;;;;;5053774;28;20024;-72
2023/03/14 08:30:58;;;;;;;8.90;2.42;;;;;;;;;;5053987;28;20364;-74
2023/03/14 08:33:24;;;;;;;8.50;1.90;;;;;;;;;;5053651;28;20522;-73
2023/03/14 08:35:57;;;;;;;14.48;2.03;;;;;;;;;;5053854;28;20395;-73
2023/03/14 08:38:23;;;;;;;11.38;2.58;;;;;;;;;;5053844;28;20042;-72
2023/03/14 08:40:49;;;;;;;10.98;2.50;;;;;;;;;;5054012;28;20040;-73
2023/03/14 08:43:15;;;;;;;13.55;2.30;;;;;;;;;;5053260;28;20017;-73
2023/03/14 08:45:42;;;;;;;15.88;2.78;;;;;;;;;;5053830;28;20039;-72
2023/03/14 08:48:08;;;;;;;8.18;2.10;;;;;;;;;;5053968;28;20029;-74
2023/03/14 08:50:34;;;;;;;14.80;2.67;;;;;;;;;;5053860;28;20513;-73
2023/03/14 08:53:00;;;;;;;11.85;3.53;;;;;;;;;;5054560;28;20597;-72
2023/03/14 08:55:29;;;;;;;16.35;2.95;;;;;;;;;;5054669;28;20055;-72
2023/03/14 08:57:56;;;;;;;8.05;2.47;;;;;;;;;;5054492;28;20433;-73
2023/03/14 09:00:22;;;;;;;12.23;2.90;;;;;;;;;;5054725;28;20481;-72
2023/03/14 09:02:48;;;;;;;9.13;2.58;;;;;;;;;;5052762;28;20482;-74
2023/03/14 09:05:14;;;;;;;14.80;3.63;;;;;;;;;;5054336;28;20051;-74
2023/03/14 09:07:41;;;;;;;9.32;2.80;;;;;;;;;;5054375;28;20033;-73
2023/03/14 09:10:07;;;;;;;14.48;3.10;;;;;;;;;;5070812;28;20021;-72
2023/03/14 09:12:33;;;;;;;13.40;2.92;;;;;;;;;;5074127;28;20037;-74
2023/03/14 09:15:00;;;;;;;12.73;2.88;;;;;;;;;;5055735;28;20028;-72
2023/03/14 09:17:26;;;;;;;14.38;3.40;;;;;;;;;;5054651;28;20487;-74
2023/03/14 09:19:52;;;;;;;10.60;3.20;;;;;;;;;;5054181;28;20036;-73
2023/03/14 09:22:18;;;;;;;17.73;4.75;;;;;;;;;;5054010;28;20013;-73
2023/03/14 09:24:44;;;;;;;19.33;3.78;;;;;;;;;;5054257;28;20028;-73
2023/03/14 09:27:10;;;;;;;15.15;3.10;;;;;;;;;;5053872;28;20497;-73
2023/03/14 09:29:36;;;;;;;11.70;3.45;;;;;;;;;;5054127;28;20029;-75
2023/03/14 09:32:03;;;;;;;15.35;3.72;;;;;;;;;;5053652;28;20021;-72
2023/03/14 09:34:29;;;;;;;19.08;3.70;;;;;;;;;;5054098;28;20021;-73
2023/03/14 09:36:55;;;;;;;14.90;3.97;;;;;;;;;;5053867;28;20063;-72
2023/03/14 09:39:21;;;;;;;13.88;3.30;;;;;;;;;;5053982;28;20710;-73
2023/03/14 09:41:49;;;;;;;15.10;3.83;;;;;;;;;;5053577;28;20039;-73
2023/03/14 09:44:17;;;;;;;8.30;1.65;;;;;;;;;;5053686;28;20076;-72
2023/03/14 09:46:44;;;;;;;6.05;1.48;;;;;;;;;;5053750;28;20028;-72
2023/03/14 09:49:12;;;;;;;7.43;1.52;;;;;;;;;;5053704;28;20031;-73
2023/03/14 09:51:38;;;;;;;2.20;0.98;;;;;;;;;;5053723;28;20090;-71
2023/03/14 09:54:05;;;;;;;6.38;1.15;;;;;;;;;;5053341;28;20052;-72
2023/03/14 09:56:32;;;;;;;5.32;1.52;;;;;;;;;;5053564;28;20453;-73
2023/03/14 09:59:00;;;;;;;6.20;1.50;;;;;;;;;;5053232;28;20025;-72
2023/03/14 10:01:31;;;;;;;10.07;1.35;;;;;;;;;;5053265;28;20024;-73
2023/03/14 10:03:58;;;;;;;5.57;1.35;;;;;;;;;;5053117;28;20036;-72
2023/03/14 10:06:26;;;;;;;11.85;2.67;;;;;;;;;;5053190;28;20391;-72
2023/03/14 10:08:52;;;;;;;7.03;2.08;;;;;;;;;;5052767;28;20025;-72
2023/03/14 10:11:19;;;;;;;5.82;1.88;;;;;;;;;;5052750;28;20025;-72
2023/03/14 10:14:08;;;;;;;2.70;1.00;;;;;;;;;;5052079;28;20074;-72
2023/03/14 10:16:41;;;;;;;2.13;0.90;;;;;;;;;;5049417;28;20044;-71
2023/03/14 10:19:10;;;;;;;2.25;0.80;;;;;;;;;;5052416;28;20032;-73
2023/03/14 10:21:38;;;;;;;5.15;1.17;;;;;;;;;;5052591;28;20116;-73
2023/03/14 10:24:10;;;;;;;6.55;1.08;;;;;;;;;;5052354;28;20021;-71
2023/03/14 10:26:37;;;;;;;7.32;0.93;;;;;;;;;;5052552;28;20021;-73
2023/03/14 10:29:13;;;;;;;6.22;1.05;;;;;;;;;;5052239;28;20025;-73
2023/03/14 10:31:55;;;;;;;2.63;0.68;;;;;;;;;;5052186;28;20032;-72
2023/03/14 10:34:23;;;;;;;1.83;0.68;;;;;;;;;;5052487;28;20064;-72
2023/03/14 10:36:53;;;;;;;1.73;0.60;;;;;;;;;;5052090;28;20099;-73
2023/03/14 10:39:43;;;;;;;2.58;0.80;;;;;;;;;;5052737;28;20389;-73
2023/03/14 10:42:31;;;;;;;3.45;0.60;;;;;;;;;;5052419;28;20025;-73
2023/03/14 10:45:23;;;;;;;2.70;0.73;;;;;;;;;;5052156;28;20044;-78
2023/03/14 10:47:50;;;;;;;3.30;1.10;;;;;;;;;;5041315;28;20577;-73
2023/03/14 10:50:30;;;;;;;2.75;1.10;;;;;;;;;;5052437;28;20033;-73
2023/03/14 10:52:57;;;;;;;1.60;0.65;;;;;;;;;;5058702;28;20030;-72
2023/03/14 10:55:26;;;;;;;0.98;0.50;;;;;;;;;;5071967;28;20021;-72
2023/03/14 10:57:52;;;;;;;3.50;0.77;;;;;;;;;;5071603;28;20025;-74
2023/03/14 11:00:19;;;;;;;3.20;0.80;;;;;;;;;;5071871;28;20028;-72
2023/03/14 11:02:50;;;;;;;3.72;0.90;;;;;;;;;;5075858;28;20560;-73
2023/03/14 11:05:27;;;;;;;4.28;1.17;;;;;;;;;;5088782;28;20020;-72
2023/03/14 11:08:02;;;;;;;3.05;1.02;;;;;;;;;;5090007;28;20012;-73
2023/03/14 11:10:55;;;;;;;2.28;0.85;;;;;;;;;;5088806;28;20028;-72
2023/03/14 11:13:28;;;;;;;3.67;1.05;;;;;;;;;;5070450;28;20246;-73
2023/03/14 11:16:12;;;;;;;3.38;0.95;;;;;;;;;;5071851;28;20078;-77
2023/03/14 11:18:57;;;;;;;1.38;0.80;;;;;;;;;;5071546;28;20039;-74
2023/03/14 11:21:42;;;;;;;3.55;1.20;;;;;;;;;;5071601;28;20024;-74
2023/03/14 11:24:28;;;;;;;4.75;0.93;;;;;;;;;;5069828;28;20066;-73
2023/03/14 11:27:17;;;;;;;5.53;1.20;;;;;;;;;;5069998;28;20016;-74
2023/03/14 11:30:01;;;;;;;7.07;1.58;;;;;;;;;;5070812;28;20028;-74
2023/03/14 11:32:44;;;;;;;10.38;1.63;;;;;;;;;;5070535;28;20470;-73
2023/03/14 11:35:18;;;;;;;12.52;2.17;;;;;;;;;;5070898;28;20109;-72
2023/03/14 11:37:52;;;;;;;9.32;2.75;;;;;;;;;;5069896;28;20143;-72
2023/03/14 11:40:18;;;;;;;12.07;1.40;;;;;;;;;;5071047;28;20024;-73
2023/03/14 11:42:46;;;;;;;11.32;1.70;;;;;;;;;;5070493;28;20025;-73
2023/03/14 11:45:33;;;;;;;12.68;2.15;;;;;;;;;;5070733;28;20095;-73
2023/03/14 11:48:08;;;;;;;9.68;2.40;;;;;;;;;;5069148;28;20032;-74
2023/03/14 11:50:33;;;;;;;;;;;;;;;;;;5070457;28;20465;-73
2023/03/14 11:53:05;;;;;;;14.90;2.15;;;;;;;;;;5070138;28;19905;-75
2023/03/14 11:55:33;;;;;;;18.45;2.17;;;;;;;;;;5070619;28;20541;-73
2023/03/14 11:58:01;;;;;;;11.40;2.13;;;;;;;;;;5070403;28;20032;-73
2023/03/14 12:00:28;;;;;;;14.38;2.15;;;;;;;;;;5070872;28;20017;-74
2023/03/14 12:03:13;;;;;;;13.27;2.28;;;;;;;;;;5069678;28;20036;-73
2023/03/14 12:05:58;;;;;;;19.02;2.22;;;;;;;;;;5070351;28;20013;-73
2023/03/14 12:08:30;;;;;;;15.52;2.00;;;;;;;;;;5070322;28;20478;-74
2023/03/14 12:11:00;;;;;;;22.42;2.58;;;;;;;;;;5070298;28;20035;-74
2023/03/14 12:13:29;;;;;;;13.27;2.10;;;;;;;;;;5070006;28;20031;-73
2023/03/14 12:15:59;;;;;;;16.67;2.08;;;;;;;;;;5069809;28;20039;-73
2023/03/14 12:18:29;;;;;;;18.83;3.42;;;;;;;;;;5070175;28;20074;-73
2023/03/14 12:20:57;;;;;;;18.92;2.97;;;;;;;;;;5070056;28;20016;-72
2023/03/14 12:23:24;;;;;;;17.70;2.22;;;;;;;;;;5070845;28;20056;-73
2023/03/14 12:26:06;;;;;;;22.52;3.13;;;;;;;;;;5070471;28;20086;-73
2023/03/14 12:28:32;;;;;;;16.80;2.92;;;;;;;;;;5069606;28;20534;-74
2023/03/14 12:31:18;;;;;;;22.02;2.90;;;;;;;;;;5069563;28;20345;-74
2023/03/14 12:33:45;;;;;;;25.50;3.28;;;;;;;;;;5069545;28;20024;-74
2023/03/14 12:36:13;;;;;;;18.63;2.97;;;;;;;;;;5070631;28;20035;-73
2023/03/14 12:38:46;;;;;;;18.05;2.80;;;;;;;;;;5073364;28;20064;-73
2023/03/14 12:41:15;;;;;;;23.35;3.45;;;;;;;;;;5073692;28;20104;-73
2023/03/14 12:43:41;;;;;;;20.25;3.25;;;;;;;;;;5073236;28;20024;-74
2023/03/14 12:46:09;;;;;;;23.48;3.55;;;;;;;;;;5073354;28;20016;-75
2023/03/14 12:48:35;;;;;;;18.95;2.88;;;;;;;;;;5073068;28;20020;-75
2023/03/14 12:51:07;;;;;;;29.10;3.55;;;;;;;;;;5072934;28;20078;-76
2023/03/14 12:53:33;;;;;;;21.77;2.70;;;;;;;;;;5072946;28;20084;-73
2023/03/14 12:56:11;;;;;;;17.73;3.13;;;;;;;;;;5072877;28;20024;-73
2023/03/14 12:58:56;;;;;;;27.98;3.42;;;;;;;;;;5073257;28;20082;-72
2023/03/14 13:01:22;;;;;;;19.88;2.80;;;;;;;;;;5073555;28;20029;-72
2023/03/14 13:03:53;;;;;;;26.63;3.60;;;;;;;;;;5073518;28;20017;-73
2023/03/14 13:06:37;;;;;;;26.08;3.50;;;;;;;;;;5073081;28;20124;-76
2023/03/14 13:09:22;;;;;;;37.17;4.88;;;;;;;;;;5072791;28;20486;-76
2023/03/14 13:11:48;;;;;;;29.85;4.72;;;;;;;;;;5072958;28;20424;-73
2023/03/14 13:14:14;;;;;;;23.42;4.07;;;;;;;;;;5073410;28;20042;-75
2023/03/14 13:16:40;;;;;;;34.75;4.72;;;;;;;;;;5073397;28;20436;-73
2023/03/14 13:19:17;;;;;;;24.13;3.95;;;;;;;;;;5073107;28;20064;-74
2023/03/14 13:21:44;;;;;;;24.45;3.28;;;;;;;;;;5074147;28;20097;-74
2023/03/14 13:24:36;;;;;;;34.47;3.90;;;;;;;;;;5074899;28;20028;-75
2023/03/14 13:27:02;;;;;;;32.63;5.80;;;;;;;;;;5073458;28;20044;-78
2023/03/14 13:29:31;;;;;;;26.13;4.47;;;;;;;;;;5074858;28;20020;-74
2023/03/14 13:31:57;;;;;;;26.77;3.10;;;;;;;;;;5076158;28;20082;-74
2023/03/14 13:34:26;;;;;;;12.65;2.22;;;;;;;;;;5078092;28;20029;-73
2023/03/14 13:36:52;;;;;;;17.45;2.17;;;;;;;;;;5076078;28;20131;-76
2023/03/14 13:39:21;;;;;;;12.82;2.15;;;;;;;;;;5073611;28;20437;-75
2023/03/14 13:41:48;;;;;;;16.90;2.70;;;;;;;;;;5075124;28;20107;-74
2023/03/14 13:44:17;;;;;;;15.40;2.42;;;;;;;;;;5073686;28;20025;-75
2023/03/14 13:46:43;;;;;;;27.17;3.30;;;;;;;;;;5073502;28;20028;-75
2023/03/14 13:49:16;;;;;;;19.42;2.88;;;;;;;;;;5072833;28;20028;-77
2023/03/14 13:51:42;;;;;;;18.15;3.60;;;;;;;;;;5073389;28;20116;-75
2023/03/14 13:54:18;;;;;;;28.95;3.53;;;;;;;;;;5072834;28;20076;-75
2023/03/14 13:56:44;;;;;;;38.40;4.03;;;;;;;;;;5073063;28;20745;-75
2023/03/14 13:59:24;;;;;;;23.00;3.35;;;;;;;;;;5073091;28;20031;-75
2023/03/14 14:01:50;;;;;;;18.20;3.15;;;;;;;;;;5074233;28;20107;-73
2023/03/14 14:04:19;;;;;;;17.23;3.05;;;;;;;;;;5073886;28;20021;-75
2023/03/14 14:06:50;;;;;;;21.60;4.43;;;;;;;;;;5062662;28;20348;-74
2023/03/14 14:09:17;;;;;;;19.75;3.38;;;;;;;;;;5052799;28;20044;-75
2023/03/14 14:11:43;;;;;;;23.05;3.20;;;;;;;;;;5052770;28;20029;-72
2023/03/14 14:14:21;;;;;;;26.67;3.30;;;;;;;;;;5052925;28;20028;-74
2023/03/14 14:16:48;;;;;;;18.80;2.72;;;;;;;;;;5052489;28;20115;-72
2023/03/14 14:19:14;;;;;;;18.98;2.72;;;;;;;;;;5052505;28;20064;-74
2023/03/14 14:21:40;;;;;;;15.90;2.55;;;;;;;;;;5052152;28;20029;-73
2023/03/14 14:24:08;;;;;;;17.27;3.88;;;;;;;;;;5051960;28;20021;-73
2023/03/14 14:26:34;;;;;;;26.70;3.10;;;;;;;;;;5045190;28;20030;-73
2023/03/14 14:29:02;;;;;;;18.48;3.33;;;;;;;;;;5052226;28;20055;-73
2023/03/14 14:31:28;;;;;;;20.45;3.08;;;;;;;;;;5051478;28;20031;-74
2023/03/14 14:33:58;;;;;;;17.80;2.83;;;;;;;;;;5051932;28;20025;-74
2023/03/14 14:36:27;;;;;;;21.20;2.92;;;;;;;;;;5051692;28;20073;-73
2023/03/14 14:38:54;;;;;;;13.60;2.47;;;;;;;;;;5051875;28;20028;-73
2023/03/14 14:41:21;;;;;;;16.77;2.70;;;;;;;;;;5051802;28;20031;-71